(°C)
-1°
-2°
-3°
(°C)
-1°
-3°
-4°
-6°
-7°
-7°
SW
SSW
SW
SW
SSW
S
SSO
(km/h)
7-22
7-17
7-14
7-13
7-12
8-12
8-12
(mm)
0
0
0
0
0
0
0
(%)
3
4
4
5
4
4
4

Sonnenhöhe

/ -17.4°
sun-icon
UV 11
05:57
20:06
Abnehmender Halbmond (290°)
03:36
14:15

METAR für Walden (K33V)

Zeit Bedingungen Temperatur/
Taupunkt
Wind Sichtweite Wetter Wolken Druck Änderung Roh
VFR 4.8°C / -8.2°C 190º 4kt >10km - Clear - K33V 060335Z AUTO 19004KT 10SM CLR 05/M08 A3037 RMK AO2 T00481082
VFR 4.8°C / -8.1°C 200º 4kt >10km - Clear - K33V 060315Z AUTO 20004KT 10SM CLR 05/M08 A3036 RMK AO2 T00481081
VFR 5.5°C / -9.1°C 210º 5kt >10km - Clear - K33V 060255Z AUTO 21005KT 10SM CLR 06/M09 A3036 RMK AO2 T00551091
VFR 5.4°C / -6.4°C 220º 5kt >10km - Clear - K33V 060235Z AUTO 22005KT 10SM CLR 05/M06 A3035 RMK AO2 T00541064
VFR 5.2°C / -8°C 230º 5kt >10km - Clear - K33V 060215Z AUTO 23005KT 10SM CLR 05/M08 A3035 RMK AO2 T00521080
VFR 6.3°C / -8.1°C 260º 5kt >10km - Clear - K33V 060155Z AUTO 26005KT 10SM CLR 06/M08 A3034 RMK AO2 T00631081
VFR 8.7°C / -8.5°C 270º 6kt >10km - Clear - K33V 060135Z AUTO 27006KT 10SM CLR 09/M08 A3034 RMK AO2 T00871085
VFR 9.7°C / -8.2°C 280º 8kt >10km - Clear - K33V 060115Z AUTO 28008KT 10SM CLR 10/M08 A3033 RMK AO2 T00971082
VFR 9.7°C / -8.1°C 280º 11kt >10km - Clear - K33V 060055Z AUTO 28011KT 10SM CLR 10/M08 A3033 RMK AO2 T00971081
VFR 9.7°C / -8.5°C 280º 15kt Gust 22kt >10km - Clear - K33V 060035Z AUTO 28015G22KT 10SM CLR 10/M08 A3033 RMK AO2 T00971085
VFR 9.7°C / -8.3°C 290º 18kt Gust 23kt >10km - Clear - K33V 060015Z AUTO 29018G23KT 10SM CLR 10/M08 A3032 RMK AO2 T00971083
VFR 10.2°C / -8.5°C 290º 13kt Gust 24kt >10km - Scattered Clouds 7000ft - K33V 052355Z AUTO 29013G24KT 10SM SCT070 SCT085 10/M08 A3033 RMK AO2 T01021085 10111 20027
VFR 10.5°C / -7.3°C 260º 12kt Gust 18kt >10km - Broken Clouds 7000ft - K33V 052335Z AUTO 26012G18KT 10SM BKN070 BKN080 11/M07 A3032 RMK AO2 T01051073
VFR 10.5°C / -7.2°C 260º 16kt Gust 19kt >10km - Scattered Clouds 7000ft - K33V 052315Z AUTO 26016G19KT 10SM SCT070 SCT080 11/M07 A3032 RMK AO2 T01051072
VFR 10.2°C / -5.9°C 270º 16kt Gust 22kt >10km - Broken Clouds 7000ft - K33V 052255Z AUTO 27016G22KT 10SM BKN070 BKN090 10/M06 A3032 RMK AO2 T01021059
VFR 9.7°C / -6.1°C 280º 15kt Gust 20kt >10km - Scattered Clouds 6000ft - K33V 052235Z AUTO 28015G20KT 10SM SCT060 SCT070 10/M06 A3031 RMK AO2 T00971061
VFR 9.9°C / -5.8°C 290º 13kt Gust 20kt >10km - Scattered Clouds 6000ft - K33V 052215Z AUTO 29013G20KT 10SM SCT060 SCT070 SCT090 10/M06 A3031 RMK AO2 T00991058
VFR 9.7°C / -3.3°C 280º 11kt >10km - Scattered Clouds 6000ft - K33V 052155Z AUTO 28011KT 10SM SCT060 SCT070 SCT090 10/M03 A3031 RMK AO2 T00971033
VFR 9.3°C / -3.3°C 300º 13kt >10km - Scattered Clouds 6000ft - K33V 052135Z AUTO 30013KT 10SM SCT060 BKN070 BKN080 09/M03 A3032 RMK AO2 T00931033
VFR 6.7°C / -1.5°C 310º 11kt Gust 15kt >10km - Scattered Clouds 4600ft - K33V 052115Z AUTO 31011G15KT 10SM SCT046 SCT055 BKN070 07/M01 A3032 RMK AO2 T00671015
VFR 5.2°C / -0.6°C 360º 12kt Gust 17kt >10km - Scattered Clouds 3200ft - K33V 052055Z AUTO 36012G17KT 10SM SCT032 BKN048 OVC080 05/M01 A3033 RMK AO2 T00521006
VFR 5.5°C / -1°C 330º 13kt Gust 17kt >10km - Scattered Clouds 3000ft - K33V 052035Z AUTO 33013G17KT 10SM SCT030 BKN046 OVC080 06/M01 A3033 RMK AO2 T00551010
VFR 5.3°C / -0.5°C 350º 9kt Gust 14kt >10km - Scattered Clouds 2600ft - K33V 052015Z AUTO 35009G14KT 10SM SCT026 BKN031 OVC043 05/00 A3032 RMK AO2 T00531005
VFR 6°C / 0°C 340º 3kt >10km - Scattered Clouds 2200ft - K33V 051955Z AUTO 34003KT 10SM SCT022 SCT028 BKN047 06/00 A3032 RMK AO2 T00600000

VFR

4.8°C / -8.2°C

[Mehr]
Wind 190º 4kt
Sichtweite >10km
Wetter -
Wolken Clear
Druck
Änderung -
Roh K33V 060335Z AUTO 19004KT 10SM CLR 05/M08 A3037 RMK AO2 T00481082

VFR

4.8°C / -8.1°C

[Mehr]
Wind 200º 4kt
Sichtweite >10km
Wetter -
Wolken Clear
Druck
Änderung -
Roh K33V 060315Z AUTO 20004KT 10SM CLR 05/M08 A3036 RMK AO2 T00481081

VFR

5.5°C / -9.1°C

[Mehr]
Wind 210º 5kt
Sichtweite >10km
Wetter -
Wolken Clear
Druck
Änderung -
Roh K33V 060255Z AUTO 21005KT 10SM CLR 06/M09 A3036 RMK AO2 T00551091

VFR

5.4°C / -6.4°C

[Mehr]
Wind 220º 5kt
Sichtweite >10km
Wetter -
Wolken Clear
Druck
Änderung -
Roh K33V 060235Z AUTO 22005KT 10SM CLR 05/M06 A3035 RMK AO2 T00541064

VFR

5.2°C / -8°C

[Mehr]
Wind 230º 5kt
Sichtweite >10km
Wetter -
Wolken Clear
Druck
Änderung -
Roh K33V 060215Z AUTO 23005KT 10SM CLR 05/M08 A3035 RMK AO2 T00521080

VFR

6.3°C / -8.1°C

[Mehr]
Wind 260º 5kt
Sichtweite >10km
Wetter -
Wolken Clear
Druck
Änderung -
Roh K33V 060155Z AUTO 26005KT 10SM CLR 06/M08 A3034 RMK AO2 T00631081

VFR

8.7°C / -8.5°C

[Mehr]
Wind 270º 6kt
Sichtweite >10km
Wetter -
Wolken Clear
Druck
Änderung -
Roh K33V 060135Z AUTO 27006KT 10SM CLR 09/M08 A3034 RMK AO2 T00871085

VFR

9.7°C / -8.2°C

[Mehr]
Wind 280º 8kt
Sichtweite >10km
Wetter -
Wolken Clear
Druck
Änderung -
Roh K33V 060115Z AUTO 28008KT 10SM CLR 10/M08 A3033 RMK AO2 T00971082

VFR

9.7°C / -8.1°C

[Mehr]
Wind 280º 11kt
Sichtweite >10km
Wetter -
Wolken Clear
Druck
Änderung -
Roh K33V 060055Z AUTO 28011KT 10SM CLR 10/M08 A3033 RMK AO2 T00971081

VFR

9.7°C / -8.5°C

[Mehr]
Wind 280º 15kt Gust 22kt
Sichtweite >10km
Wetter -
Wolken Clear
Druck
Änderung -
Roh K33V 060035Z AUTO 28015G22KT 10SM CLR 10/M08 A3033 RMK AO2 T00971085

VFR

9.7°C / -8.3°C

[Mehr]
Wind 290º 18kt Gust 23kt
Sichtweite >10km
Wetter -
Wolken Clear
Druck
Änderung -
Roh K33V 060015Z AUTO 29018G23KT 10SM CLR 10/M08 A3032 RMK AO2 T00971083

VFR

10.2°C / -8.5°C

[Mehr]
Wind 290º 13kt Gust 24kt
Sichtweite >10km
Wetter -
Wolken Scattered Clouds 7000ft
Druck
Änderung -
Roh K33V 052355Z AUTO 29013G24KT 10SM SCT070 SCT085 10/M08 A3033 RMK AO2 T01021085 10111 20027

VFR

10.5°C / -7.3°C

[Mehr]
Wind 260º 12kt Gust 18kt
Sichtweite >10km
Wetter -
Wolken Broken Clouds 7000ft
Druck
Änderung -
Roh K33V 052335Z AUTO 26012G18KT 10SM BKN070 BKN080 11/M07 A3032 RMK AO2 T01051073

VFR

10.5°C / -7.2°C

[Mehr]
Wind 260º 16kt Gust 19kt
Sichtweite >10km
Wetter -
Wolken Scattered Clouds 7000ft
Druck
Änderung -
Roh K33V 052315Z AUTO 26016G19KT 10SM SCT070 SCT080 11/M07 A3032 RMK AO2 T01051072

VFR

10.2°C / -5.9°C

[Mehr]
Wind 270º 16kt Gust 22kt
Sichtweite >10km
Wetter -
Wolken Broken Clouds 7000ft
Druck
Änderung -
Roh K33V 052255Z AUTO 27016G22KT 10SM BKN070 BKN090 10/M06 A3032 RMK AO2 T01021059

VFR

9.7°C / -6.1°C

[Mehr]
Wind 280º 15kt Gust 20kt
Sichtweite >10km
Wetter -
Wolken Scattered Clouds 6000ft
Druck
Änderung -
Roh K33V 052235Z AUTO 28015G20KT 10SM SCT060 SCT070 10/M06 A3031 RMK AO2 T00971061

VFR

9.9°C / -5.8°C

[Mehr]
Wind 290º 13kt Gust 20kt
Sichtweite >10km
Wetter -
Wolken Scattered Clouds 6000ft
Druck
Änderung -
Roh K33V 052215Z AUTO 29013G20KT 10SM SCT060 SCT070 SCT090 10/M06 A3031 RMK AO2 T00991058

VFR

9.7°C / -3.3°C

[Mehr]
Wind 280º 11kt
Sichtweite >10km
Wetter -
Wolken Scattered Clouds 6000ft
Druck
Änderung -
Roh K33V 052155Z AUTO 28011KT 10SM SCT060 SCT070 SCT090 10/M03 A3031 RMK AO2 T00971033

VFR

9.3°C / -3.3°C

[Mehr]
Wind 300º 13kt
Sichtweite >10km
Wetter -
Wolken Scattered Clouds 6000ft
Druck
Änderung -
Roh K33V 052135Z AUTO 30013KT 10SM SCT060 BKN070 BKN080 09/M03 A3032 RMK AO2 T00931033

VFR

6.7°C / -1.5°C

[Mehr]
Wind 310º 11kt Gust 15kt
Sichtweite >10km
Wetter -
Wolken Scattered Clouds 4600ft
Druck
Änderung -
Roh K33V 052115Z AUTO 31011G15KT 10SM SCT046 SCT055 BKN070 07/M01 A3032 RMK AO2 T00671015

VFR

5.2°C / -0.6°C

[Mehr]
Wind 360º 12kt Gust 17kt
Sichtweite >10km
Wetter -
Wolken Scattered Clouds 3200ft
Druck
Änderung -
Roh K33V 052055Z AUTO 36012G17KT 10SM SCT032 BKN048 OVC080 05/M01 A3033 RMK AO2 T00521006

VFR

5.5°C / -1°C

[Mehr]
Wind 330º 13kt Gust 17kt
Sichtweite >10km
Wetter -
Wolken Scattered Clouds 3000ft
Druck
Änderung -
Roh K33V 052035Z AUTO 33013G17KT 10SM SCT030 BKN046 OVC080 06/M01 A3033 RMK AO2 T00551010

VFR

5.3°C / -0.5°C

[Mehr]
Wind 350º 9kt Gust 14kt
Sichtweite >10km
Wetter -
Wolken Scattered Clouds 2600ft
Druck
Änderung -
Roh K33V 052015Z AUTO 35009G14KT 10SM SCT026 BKN031 OVC043 05/00 A3032 RMK AO2 T00531005

VFR

6°C / 0°C

[Mehr]
Wind 340º 3kt
Sichtweite >10km
Wetter -
Wolken Scattered Clouds 2200ft
Druck
Änderung -
Roh K33V 051955Z AUTO 34003KT 10SM SCT022 SCT028 BKN047 06/00 A3032 RMK AO2 T00600000

Aktuelle Satellitenbilder für Walden, USA

Die Standortmarkierung ist platziert auf Walden. [Mehr]

Das Echtzeit-Satellitenbild kombiniert sichtbares Licht während des Tages mit Infrarotstrahlung während der Nacht. Nachts ist das Bild nicht dunkel, da Infrarotstrahlung Temperaturunterschiede erkennen kann. Leider sind niedrige Wolken und Nebel nur schwer von den Bodentemperaturen zu unterscheiden und können daher nachts fast unsichtbar sein. Meteosat-Satellitenbilder für Europa werden alle 5 Minuten in Echtzeit aktualisiert. Die Bilder GOES-16 / GOES-17 (Nord- und Südamerika) und Himawari (Asien) werden alle 10 Minuten aktualisiert.

Radar- und Niederschlags-Nowcast für Walden

Die Ortsmarkierung zeigt auf Walden. Diese Animation zeigt das Niederschlagsradar der letzten Stunde, sowie eine 1h Vorhersage. Nieselregen und leichter Schneefall können für das Radar unsichtbar sein. Die Niederschlagsintensität ist farbcodiert von Hellblau bis Lila.